Time;durP1;ratioP1;P1;durP2;ratioP2;P2;SDS_P1;SDS_P2;PMS_P1;PMS_P2;Temp;Humidity;BMP_temperature;BMP_pressure;BME280_temperature;BME280_humidity;BME280_pressure;Samples;Min_cycle;Max_cycle;Signal;HPM_P1;HPM_P2
2022/06/13 00:02:22;;;;;;;1.95;1.45;;;20.10;48.60;;;;;;913672;154;27408;-72
2022/06/13 00:04:48;;;;;;;1.80;1.35;;;20.10;48.70;;;;;;915296;154;27434;-72
2022/06/13 00:07:15;;;;;;;1.42;1.00;;;20.00;48.90;;;;;;913543;154;27389;-72
2022/06/13 00:09:42;;;;;;;1.98;0.98;;;20.00;49.00;;;;;;913639;154;27429;-73
2022/06/13 00:12:08;;;;;;;1.20;1.10;;;20.00;49.10;;;;;;913057;154;27425;-72
2022/06/13 00:14:35;;;;;;;1.75;1.25;;;19.90;49.70;;;;;;912701;154;27315;-72
2022/06/13 00:17:01;;;;;;;1.75;1.15;;;19.90;49.20;;;;;;914520;154;27401;-74
2022/06/13 00:19:28;;;;;;;1.62;0.90;;;19.90;49.30;;;;;;912438;154;27443;-73
2022/06/13 00:21:54;;;;;;;3.05;1.00;;;19.80;49.40;;;;;;914444;154;27492;-74
2022/06/13 00:24:21;;;;;;;3.62;1.62;;;19.80;49.50;;;;;;914360;154;27533;-72
2022/06/13 00:26:48;;;;;;;2.00;1.10;;;19.70;49.50;;;;;;911160;154;27378;-72
2022/06/13 00:29:14;;;;;;;1.37;1.15;;;19.70;49.60;;;;;;912568;154;27454;-71
2022/06/13 00:31:41;;;;;;;1.87;1.20;;;19.70;49.70;;;;;;914390;154;27314;-73
2022/06/13 00:34:07;;;;;;;1.93;1.20;;;19.60;49.80;;;;;;910514;154;27426;-72
2022/06/13 00:36:34;;;;;;;1.72;1.45;;;19.60;49.90;;;;;;913569;154;27488;-74
2022/06/13 00:39:01;;;;;;;1.87;1.05;;;19.50;50.00;;;;;;914350;154;27371;-72
2022/06/13 00:41:27;;;;;;;2.25;1.35;;;19.50;50.10;;;;;;912461;154;29496;-72
2022/06/13 00:43:54;;;;;;;1.07;0.80;;;19.40;50.30;;;;;;912614;154;27369;-72
2022/06/13 00:46:23;;;;;;;3.43;1.43;;;19.40;50.30;;;;;;912506;154;27436;-73
2022/06/13 00:48:50;;;;;;;3.02;1.42;;;19.40;50.50;;;;;;910786;154;28212;-75
2022/06/13 00:51:17;;;;;;;2.02;1.20;;;19.30;50.50;;;;;;909711;154;27424;-74
2022/06/13 00:53:43;;;;;;;3.87;1.80;;;19.30;50.70;;;;;;911189;154;27413;-72
2022/06/13 00:56:12;;;;;;;1.77;1.07;;;19.30;50.70;;;;;;916461;154;27360;-72
2022/06/13 00:58:39;;;;;;;4.67;1.75;;;19.20;50.70;;;;;;911303;154;27344;-74
2022/06/13 01:01:06;;;;;;;2.95;1.17;;;19.20;50.90;;;;;;913412;154;27413;-75
2022/06/13 01:03:32;;;;;;;1.67;1.27;;;19.20;50.90;;;;;;913568;154;27371;-71
2022/06/13 01:05:59;;;;;;;1.33;1.00;;;19.20;51.00;;;;;;914541;154;27351;-72
2022/06/13 01:08:25;;;;;;;3.80;1.30;;;19.20;51.10;;;;;;911709;154;27525;-72
2022/06/13 01:13:56;;;;;;;4.50;1.15;;;19.20;51.30;;;;;;912973;154;27422;-72
2022/06/13 01:16:34;;;;;;;2.20;1.22;;;19.20;51.20;;;;;;913108;154;27711;-75
2022/06/13 01:19:19;;;;;;;3.43;1.37;;;19.20;51.20;;;;;;912962;152;27297;-76
2022/06/13 01:21:48;;;;;;;2.77;1.50;;;19.10;51.20;;;;;;877262;154;27592;-74
2022/06/13 01:24:42;;;;;;;1.92;1.30;;;19.10;51.30;;;;;;914346;154;27463;-74
2022/06/13 01:27:30;;;;;;;1.95;1.00;;;19.10;51.40;;;;;;911463;154;27334;-77
2022/06/13 01:30:05;;;;;;;1.43;1.00;;;19.10;51.30;;;;;;910831;154;27499;-74
2022/06/13 01:32:37;;;;;;;1.60;1.20;;;19.10;51.30;;;;;;910292;154;27932;-74
2022/06/13 01:35:10;;;;;;;1.57;1.13;;;19.10;51.30;;;;;;911032;154;27493;-75
2022/06/13 01:37:37;;;;;;;2.17;1.03;;;19.00;51.30;;;;;;911958;154;27409;-74
2022/06/13 01:40:12;;;;;;;2.67;1.42;;;19.10;51.40;;;;;;912802;154;27355;-74
2022/06/13 01:43:00;;;;;;;1.30;0.85;;;19.00;51.60;;;;;;913626;154;27325;-75
2022/06/13 01:45:45;;;;;;;2.37;1.35;;;19.00;51.40;;;;;;912644;154;27482;-75
2022/06/13 01:48:12;;;;;;;1.27;1.00;;;18.90;51.40;;;;;;913931;154;27470;-75
2022/06/13 01:50:38;;;;;;;2.42;1.00;;;18.90;51.50;;;;;;910067;154;27413;-77
2022/06/13 01:53:11;;;;;;;1.50;1.17;;;18.90;51.70;;;;;;911421;154;27498;-74
2022/06/13 01:55:44;;;;;;;1.12;1.02;;;18.80;51.90;;;;;;912225;154;27331;-75
2022/06/13 01:58:24;;;;;;;1.22;1.12;;;18.70;51.80;;;;;;909476;154;27385;-76
2022/06/13 02:00:51;;;;;;;1.40;1.20;;;18.70;51.90;;;;;;910609;154;27525;-75
2022/06/13 02:03:17;;;;;;;2.43;1.30;;;18.60;52.00;;;;;;899502;155;27386;-74
2022/06/13 02:05:56;;;;;;;2.83;1.30;;;18.60;52.20;;;;;;911324;155;27538;-74
2022/06/13 02:08:31;;;;;;;2.83;1.83;;;18.50;52.50;;;;;;912010;152;27484;-73
2022/06/13 02:11:00;;;;;;;2.40;1.23;;;18.40;52.60;;;;;;914626;154;27396;-75
2022/06/13 02:13:33;;;;;;;2.40;1.20;;;18.40;52.60;;;;;;910512;154;27358;-72
2022/06/13 02:15:59;;;;;;;3.07;1.10;;;18.30;52.70;;;;;;913208;154;27428;-73
2022/06/13 02:18:26;;;;;;;2.27;1.07;;;18.20;52.80;;;;;;911321;154;27420;-73
2022/06/13 02:20:52;;;;;;;1.90;1.30;;;18.10;52.90;;;;;;913355;154;28019;-75
2022/06/13 02:23:19;;;;;;;4.83;1.40;;;18.00;53.00;;;;;;912565;154;27392;-72
2022/06/13 02:25:46;;;;;;;2.13;1.40;;;18.00;53.30;;;;;;912327;154;27472;-73
2022/06/13 02:28:17;;;;;;;1.60;1.13;;;17.90;53.50;;;;;;911412;154;27442;-72
2022/06/13 02:30:53;;;;;;;1.87;1.20;;;17.80;53.60;;;;;;913850;154;27421;-72
2022/06/13 02:33:23;;;;;;;1.60;1.13;;;17.70;53.60;;;;;;899702;155;27381;-75
2022/06/13 02:35:56;;;;;;;2.63;1.30;;;17.60;53.80;;;;;;901979;155;27531;-72
2022/06/13 02:38:24;;;;;;;1.80;1.37;;;17.50;54.00;;;;;;902404;155;27480;-73
2022/06/13 02:40:57;;;;;;;1.00;1.00;;;17.50;54.20;;;;;;903199;155;27460;-75
2022/06/13 02:43:44;;;;;;;2.83;1.53;;;17.40;54.30;;;;;;923446;153;27302;-73
2022/06/13 02:46:13;;;;;;;1.60;1.50;;;17.30;54.60;;;;;;922218;153;27265;-74
2022/06/13 02:48:43;;;;;;;1.70;1.50;;;17.20;54.60;;;;;;925114;153;27264;-73
2022/06/13 02:51:15;;;;;;;1.67;1.30;;;17.10;54.90;;;;;;922962;153;27374;-75
2022/06/13 02:54:03;;;;;;;2.53;1.23;;;17.10;55.10;;;;;;920867;153;27349;-73
2022/06/13 02:56:32;;;;;;;2.63;1.33;;;17.00;55.30;;;;;;922220;153;27403;-73
2022/06/13 02:59:08;;;;;;;2.33;1.17;;;17.00;55.30;;;;;;923148;153;27333;-74
2022/06/13 03:01:40;;;;;;;1.70;1.37;;;16.90;55.50;;;;;;923441;150;27373;-75
2022/06/13 03:04:09;;;;;;;3.17;1.30;;;16.90;55.70;;;;;;916004;155;27457;-74
2022/06/13 03:07:01;;;;;;;3.90;1.47;;;16.80;55.90;;;;;;893930;155;27413;-74
2022/06/13 03:09:48;;;;;;;1.63;1.27;;;16.80;56.10;;;;;;925493;153;27430;-74
2022/06/13 03:12:27;;;;;;;1.73;1.37;;;16.70;56.10;;;;;;913972;154;27377;-74
2022/06/13 03:14:57;;;;;;;1.77;1.27;;;16.70;56.30;;;;;;912256;154;27410;-74
2022/06/13 03:17:41;;;;;;;2.63;1.33;;;16.70;56.50;;;;;;902641;155;27846;-74
2022/06/13 03:20:14;;;;;;;1.43;1.17;;;16.70;56.70;;;;;;921285;153;27449;-75
2022/06/13 03:22:46;;;;;;;2.00;1.50;;;16.70;56.80;;;;;;903245;155;27535;-75
2022/06/13 03:25:31;;;;;;;2.17;1.60;;;16.70;57.00;;;;;;899537;155;27424;-74
2022/06/13 03:28:12;;;;;;;1.87;0.90;;;16.70;57.00;;;;;;898942;155;27789;-75
2022/06/13 03:30:47;;;;;;;1.70;1.13;;;16.80;57.00;;;;;;905452;155;27754;-74
2022/06/13 03:36:02;;;;;;;2.03;1.30;;;16.90;57.40;;;;;;930514;151;27428;-74
2022/06/13 03:38:28;;;;;;;4.40;1.40;;;16.90;57.30;;;;;;932362;151;27434;-74
2022/06/13 03:40:55;;;;;;;2.23;1.47;;;16.90;57.60;;;;;;929295;151;27724;-74
2022/06/13 03:43:21;;;;;;;2.70;1.47;;;17.00;57.70;;;;;;931365;151;28067;-75
2022/06/13 03:45:51;;;;;;;1.30;1.13;;;17.00;57.60;;;;;;927752;151;27450;-74
2022/06/13 03:48:23;;;;;;;1.67;1.30;;;17.10;57.60;;;;;;929116;151;27422;-74
2022/06/13 03:50:56;;;;;;;2.23;1.50;;;17.10;57.60;;;;;;932098;151;27398;-74
2022/06/13 03:53:28;;;;;;;1.50;1.13;;;17.20;57.70;;;;;;928217;151;27343;-75
2022/06/13 03:56:01;;;;;;;2.43;1.63;;;17.30;57.70;;;;;;928731;151;27482;-75
2022/06/13 03:58:33;;;;;;;3.37;1.73;;;17.30;57.60;;;;;;933340;151;28871;-73
2022/06/13 04:01:09;;;;;;;1.97;1.47;;;17.30;57.60;;;;;;924405;151;27324;-73
2022/06/13 04:03:35;;;;;;;1.73;1.30;;;17.40;57.60;;;;;;930259;151;27386;-74
2022/06/13 04:06:05;;;;;;;4.20;2.07;;;17.40;57.60;;;;;;933080;151;27397;-74
2022/06/13 04:08:31;;;;;;;2.83;1.80;;;17.50;57.80;;;;;;932111;151;27550;-74
2022/06/13 04:11:13;;;;;;;2.30;1.40;;;17.60;57.80;;;;;;931232;151;27363;-74
2022/06/13 04:13:48;;;;;;;2.63;1.70;;;17.60;58.00;;;;;;931175;151;27354;-74
2022/06/13 04:16:20;;;;;;;1.93;1.57;;;17.70;57.80;;;;;;903692;151;27369;-74
2022/06/13 04:18:46;;;;;;;2.62;1.55;;;17.80;57.70;;;;;;933450;151;27384;-74
2022/06/13 04:21:34;;;;;;;3.08;1.40;;;17.90;57.60;;;;;;933164;151;27391;-74
2022/06/13 04:24:01;;;;;;;2.47;1.60;;;18.00;57.50;;;;;;933141;151;27436;-74
2022/06/13 04:26:30;;;;;;;1.97;1.33;;;18.10;57.30;;;;;;931251;151;27520;-74
2022/06/13 04:29:04;;;;;;;2.60;1.80;;;18.20;57.30;;;;;;928145;151;27384;-74
2022/06/13 04:31:29;;;;;;;2.67;1.22;;;18.30;57.30;;;;;;901385;151;27388;-74
2022/06/13 04:33:59;;;;;;;4.90;1.65;;;18.40;57.20;;;;;;931333;151;27294;-73
2022/06/13 04:36:25;;;;;;;1.87;1.50;;;18.50;57.10;;;;;;930171;151;27386;-73
2022/06/13 04:38:52;;;;;;;3.30;1.43;;;18.60;57.10;;;;;;931090;150;27349;-75
2022/06/13 04:41:18;;;;;;;3.70;1.37;;;18.70;57.00;;;;;;931632;151;27484;-74
2022/06/13 04:43:45;;;;;;;2.15;1.45;;;18.80;57.10;;;;;;930750;151;27441;-73
2022/06/13 04:46:17;;;;;;;3.42;1.65;;;18.90;57.60;;;;;;928909;151;27393;-74
2022/06/13 04:48:44;;;;;;;2.25;1.30;;;19.10;57.10;;;;;;929167;151;27308;-73
2022/06/13 04:51:10;;;;;;;1.65;1.20;;;19.30;57.10;;;;;;931278;151;27367;-74
2022/06/13 04:53:52;;;;;;;1.50;1.40;;;19.50;57.30;;;;;;932795;151;27465;-73
2022/06/13 04:56:19;;;;;;;2.47;1.75;;;19.90;57.60;;;;;;931025;151;28848;-73
2022/06/13 04:58:45;;;;;;;1.32;1.22;;;20.30;57.80;;;;;;931172;151;27359;-74
2022/06/13 05:01:29;;;;;;;1.60;1.20;;;20.70;57.60;;;;;;934120;151;27353;-74
2022/06/13 05:03:56;;;;;;;3.95;1.52;;;21.10;56.60;;;;;;937456;149;27449;-75
2022/06/13 05:06:28;;;;;;;4.15;1.80;;;21.50;55.60;;;;;;931570;151;27515;-74
2022/06/13 05:08:55;;;;;;;1.87;1.20;;;21.70;54.90;;;;;;931273;151;27357;-74
2022/06/13 05:11:24;;;;;;;2.10;1.40;;;21.90;54.40;;;;;;930512;151;27378;-74
2022/06/13 05:13:50;;;;;;;2.47;1.50;;;22.00;54.00;;;;;;933284;151;27469;-74
2022/06/13 05:16:29;;;;;;;2.10;1.12;;;22.10;53.70;;;;;;931123;151;28140;-74
2022/06/13 05:19:04;;;;;;;1.55;1.02;;;22.20;53.50;;;;;;932735;151;27631;-74
2022/06/13 05:21:34;;;;;;;1.92;1.05;;;22.30;53.40;;;;;;930119;151;27313;-74
2022/06/13 05:24:06;;;;;;;2.27;1.27;;;22.50;53.60;;;;;;935125;151;27494;-75
2022/06/13 05:26:33;;;;;;;1.15;1.07;;;22.70;53.90;;;;;;935256;151;27504;-74
2022/06/13 05:29:00;;;;;;;1.15;1.15;;;23.10;54.30;;;;;;932619;149;27462;-74
2022/06/13 05:31:26;;;;;;;2.55;1.50;;;23.60;54.60;;;;;;931618;151;27290;-75
2022/06/13 05:33:53;;;;;;;1.32;1.20;;;24.20;54.60;;;;;;930441;151;27336;-74
2022/06/13 05:36:19;;;;;;;2.00;1.50;;;24.90;53.90;;;;;;930723;151;27357;-74
2022/06/13 05:38:52;;;;;;;4.30;1.15;;;25.60;52.90;;;;;;932924;151;27353;-75
2022/06/13 05:41:18;;;;;;;1.12;0.98;;;26.20;51.70;;;;;;934461;151;27332;-73
2022/06/13 05:43:45;;;;;;;2.50;1.87;;;26.90;51.20;;;;;;933934;151;27330;-75
2022/06/13 05:46:14;;;;;;;2.12;1.65;;;27.50;50.70;;;;;;935673;149;27417;-74
2022/06/13 05:48:40;;;;;;;1.05;1.00;;;28.20;50.20;;;;;;932839;151;27969;-74
2022/06/13 05:51:07;;;;;;;2.75;1.25;;;28.80;49.50;;;;;;933882;151;27387;-74
2022/06/13 05:53:34;;;;;;;1.07;0.82;;;29.50;48.60;;;;;;938124;149;28067;-74
2022/06/13 05:56:00;;;;;;;2.12;1.27;;;30.20;47.80;;;;;;937361;151;27324;-74
2022/06/13 05:58:27;;;;;;;1.17;1.10;;;30.80;46.20;;;;;;935480;151;27503;-75
2022/06/13 06:00:53;;;;;;;2.33;1.42;;;31.30;45.70;;;;;;937998;151;27398;-75
2022/06/13 06:03:20;;;;;;;1.65;1.22;;;31.80;43.30;;;;;;935748;151;27349;-74
2022/06/13 06:05:47;;;;;;;2.87;1.40;;;32.20;42.90;;;;;;935437;151;27378;-74
2022/06/13 06:08:16;;;;;;;2.55;1.20;;;32.40;42.00;;;;;;937619;151;27373;-74
2022/06/13 06:10:43;;;;;;;2.87;1.25;;;32.60;41.20;;;;;;936430;151;27309;-75
2022/06/13 06:13:09;;;;;;;1.60;1.45;;;32.70;40.80;;;;;;937887;151;27721;-75
2022/06/13 06:15:36;;;;;;;2.98;1.12;;;33.00;41.00;;;;;;899605;155;27500;-74
2022/06/13 06:18:02;;;;;;;1.50;1.07;;;33.20;40.90;;;;;;921773;153;27356;-74
2022/06/13 06:20:29;;;;;;;1.40;1.00;;;33.50;40.70;;;;;;920755;151;27362;-75
2022/06/13 06:22:55;;;;;;;1.60;1.30;;;33.90;40.50;;;;;;922755;153;27293;-74
2022/06/13 06:25:22;;;;;;;2.85;1.25;;;34.40;40.10;;;;;;921125;153;27367;-75
2022/06/13 06:27:49;;;;;;;2.02;1.52;;;34.80;39.20;;;;;;921341;153;27333;-74
2022/06/13 06:30:15;;;;;;;1.25;1.10;;;35.20;37.80;;;;;;924740;152;27311;-75
2022/06/13 06:32:42;;;;;;;3.37;1.25;;;35.40;37.00;;;;;;920135;153;27307;-75
2022/06/13 06:35:08;;;;;;;2.72;1.20;;;35.60;36.60;;;;;;921299;153;26184;-74
2022/06/13 06:37:35;;;;;;;2.90;1.67;;;35.80;36.40;;;;;;923232;153;26130;-75
2022/06/13 06:40:02;;;;;;;2.25;1.22;;;36.00;35.30;;;;;;920390;153;27290;-74
2022/06/13 06:42:28;;;;;;;1.32;1.20;;;36.10;34.80;;;;;;912217;155;27390;-74
2022/06/13 06:44:55;;;;;;;1.95;1.32;;;36.20;35.30;;;;;;900431;155;27237;-74
2022/06/13 06:47:21;;;;;;;3.02;1.52;;;36.30;34.80;;;;;;899547;155;26379;-74
2022/06/13 06:49:48;;;;;;;2.50;1.45;;;36.40;33.10;;;;;;899834;155;27402;-75
2022/06/13 06:52:15;;;;;;;2.02;1.42;;;36.60;33.30;;;;;;908895;156;27413;-74
2022/06/13 07:00:11;;;;;;;2.17;1.15;;;36.90;32.80;;;;;;924312;153;26347;-74
2022/06/13 07:02:38;;;;;;;2.02;1.27;;;37.00;33.00;;;;;;923641;153;26297;-74
2022/06/13 07:05:04;;;;;;;3.67;1.20;;;37.20;32.90;;;;;;917802;154;26270;-74
2022/06/13 07:07:31;;;;;;;1.30;1.15;;;37.40;32.10;;;;;;916688;154;27327;-75
2022/06/13 07:09:57;;;;;;;2.20;1.00;;;37.50;31.90;;;;;;916528;154;26298;-74
2022/06/13 07:12:24;;;;;;;3.15;1.40;;;37.60;31.60;;;;;;909461;155;28732;-74
2022/06/13 07:14:51;;;;;;;4.30;1.30;;;37.80;32.10;;;;;;898856;155;26266;-74
2022/06/13 07:17:17;;;;;;;2.47;1.55;;;38.00;31.60;;;;;;901103;155;26429;-75
2022/06/13 07:19:44;;;;;;;1.67;0.93;;;38.20;31.30;;;;;;900452;155;26423;-75
2022/06/13 07:22:13;;;;;;;2.25;1.32;;;38.60;30.90;;;;;;905523;156;26349;-74
2022/06/13 07:24:40;;;;;;;1.95;1.40;;;38.80;30.60;;;;;;915092;154;26416;-74
2022/06/13 07:27:07;;;;;;;2.10;1.42;;;39.10;30.00;;;;;;919476;154;28209;-76
2022/06/13 07:29:33;;;;;;;2.05;1.00;;;39.30;29.70;;;;;;936536;150;26254;-76
2022/06/13 07:32:18;;;;;;;2.00;1.10;;;39.50;29.60;;;;;;910229;155;26259;-75
2022/06/13 07:34:45;;;;;;;2.17;1.02;;;39.70;29.50;;;;;;924019;153;27477;-74
2022/06/13 07:37:11;;;;;;;1.32;1.17;;;40.00;29.60;;;;;;914618;154;26868;-76
2022/06/13 07:39:38;;;;;;;1.62;1.07;;;40.40;29.20;;;;;;912372;154;26373;-74
2022/06/13 07:42:05;;;;;;;2.22;1.40;;;40.80;29.00;;;;;;916471;154;26234;-75
2022/06/13 07:44:34;;;;;;;2.02;1.10;;;41.20;28.80;;;;;;915109;155;26292;-75
2022/06/13 07:47:01;;;;;;;1.60;0.98;;;41.70;28.60;;;;;;923364;150;26345;-76
2022/06/13 07:49:27;;;;;;;1.40;1.10;;;42.20;28.50;;;;;;924527;153;26372;-76
2022/06/13 07:51:54;;;;;;;2.05;0.98;;;42.60;28.00;;;;;;922566;153;26294;-75
2022/06/13 07:54:21;;;;;;;2.12;0.80;;;43.10;27.50;;;;;;900793;155;26383;-74
2022/06/13 07:56:47;;;;;;;2.15;1.12;;;43.50;27.10;;;;;;905621;155;26326;-74
2022/06/13 07:59:19;;;;;;;3.42;1.40;;;43.70;26.40;;;;;;916076;154;26380;-74
2022/06/13 08:01:46;;;;;;;2.65;1.40;;;43.80;26.00;;;;;;915927;154;26308;-74
2022/06/13 08:04:12;;;;;;;1.87;1.30;;;43.80;25.50;;;;;;912619;154;26254;-75
2022/06/13 08:06:42;;;;;;;1.50;1.20;;;43.80;25.40;;;;;;917778;154;26346;-74
2022/06/13 08:09:05;;;;;;;2.22;1.00;;;43.60;25.50;;;;;;911352;154;26297;-76
2022/06/13 08:11:34;;;;;;;2.40;1.35;;;43.40;25.60;;;;;;910233;154;26390;-75
2022/06/13 08:14:01;;;;;;;3.08;1.12;;;43.30;25.90;;;;;;910898;154;26418;-74
2022/06/13 08:16:28;;;;;;;1.77;1.12;;;43.30;25.50;;;;;;914909;154;26264;-74
2022/06/13 08:18:54;;;;;;;1.80;1.20;;;43.20;25.00;;;;;;916504;154;26258;-75
2022/06/13 08:21:23;;;;;;;2.02;1.20;;;42.90;24.70;;;;;;913780;154;26367;-76
2022/06/13 08:23:47;;;;;;;2.80;1.45;;;42.50;24.90;;;;;;910982;154;26391;-75
2022/06/13 08:26:14;;;;;;;1.30;0.90;;;42.30;25.80;;;;;;914813;154;26304;-74
2022/06/13 08:28:40;;;;;;;1.65;1.20;;;42.20;25.40;;;;;;913436;154;28630;-74
2022/06/13 08:31:10;;;;;;;1.75;1.40;;;42.20;25.50;;;;;;912068;154;26432;-75
2022/06/13 08:33:37;;;;;;;2.83;1.10;;;42.30;25.10;;;;;;910730;154;26252;-74
2022/06/13 08:36:03;;;;;;;2.22;1.22;;;42.50;25.10;;;;;;915742;154;26313;-76
2022/06/13 08:38:30;;;;;;;2.87;1.50;;;42.60;24.70;;;;;;912949;154;26332;-75
2022/06/13 08:41:12;;;;;;;2.50;1.15;;;42.60;23.90;;;;;;913205;154;26228;-74
2022/06/13 08:44:15;;;;;;;2.08;1.30;;;42.60;24.30;;;;;;915836;154;26378;-74
2022/06/13 08:46:58;;;;;;;3.60;1.20;;;42.60;24.40;;;;;;915304;154;26297;-74
2022/06/13 08:49:29;;;;;;;3.12;1.12;;;42.60;24.20;;;;;;914088;154;26322;-74
2022/06/13 08:52:17;;;;;;;1.27;1.17;;;42.60;24.20;;;;;;913565;154;26280;-74
2022/06/13 08:54:43;;;;;;;3.05;1.20;;;42.50;24.00;;;;;;871911;162;26376;-76
2022/06/13 08:57:10;;;;;;;2.72;1.40;;;42.40;23.80;;;;;;899908;154;26311;-74
2022/06/13 08:59:48;;;;;;;1.52;1.10;;;42.40;24.00;;;;;;910457;154;26327;-74
2022/06/13 09:02:18;;;;;;;3.10;1.42;;;42.40;24.10;;;;;;913599;152;26315;-75
2022/06/13 09:05:22;;;;;;;1.62;0.95;;;42.50;23.80;;;;;;910911;154;26289;-74
2022/06/13 09:07:58;;;;;;;3.27;1.50;;;42.40;23.70;;;;;;912113;154;26306;-74
2022/06/13 09:10:37;;;;;;;4.17;1.12;;;42.30;23.10;;;;;;913328;154;26282;-74
2022/06/13 09:13:03;;;;;;;2.35;1.32;;;42.10;23.20;;;;;;912452;154;26305;-74
2022/06/13 09:15:48;;;;;;;1.75;1.20;;;41.90;23.00;;;;;;912612;154;26327;-75
2022/06/13 09:18:23;;;;;;;1.95;1.32;;;41.60;22.80;;;;;;912768;154;26382;-76
2022/06/13 09:20:53;;;;;;;1.50;1.20;;;41.30;23.10;;;;;;909885;154;26340;-74
2022/06/13 09:23:22;;;;;;;2.17;1.12;;;41.10;22.90;;;;;;910832;154;26264;-75
2022/06/13 09:26:09;;;;;;;1.25;0.98;;;40.80;22.60;;;;;;912191;154;26854;-77
2022/06/13 09:28:54;;;;;;;1.62;1.00;;;40.50;22.50;;;;;;882559;155;26813;-74
2022/06/13 09:31:32;;;;;;;1.67;1.20;;;40.10;23.00;;;;;;898301;155;26367;-74
2022/06/13 09:34:17;;;;;;;3.15;1.30;;;39.70;23.00;;;;;;899074;156;26348;-73
2022/06/13 09:36:58;;;;;;;1.50;1.20;;;39.50;23.50;;;;;;904432;156;27412;-74
2022/06/13 09:39:25;;;;;;;2.37;1.25;;;39.30;23.80;;;;;;910044;153;27394;-73
2022/06/13 09:42:00;;;;;;;4.17;1.10;;;39.10;24.20;;;;;;907928;155;26353;-73
2022/06/13 09:44:26;;;;;;;2.42;1.40;;;39.10;24.30;;;;;;921508;152;26295;-73
2022/06/13 09:46:59;;;;;;;1.75;1.32;;;39.20;24.30;;;;;;917265;152;26362;-74
2022/06/13 09:49:36;;;;;;;1.57;1.20;;;39.30;24.20;;;;;;929945;152;26265;-74
2022/06/13 09:52:13;;;;;;;3.40;1.22;;;39.30;24.20;;;;;;923343;152;26287;-74
2022/06/13 09:55:00;;;;;;;1.77;1.10;;;39.30;24.30;;;;;;928654;152;26255;-73
2022/06/13 09:57:39;;;;;;;1.27;1.00;;;39.50;23.90;;;;;;926617;152;27359;-74
2022/06/13 10:00:14;;;;;;;3.95;1.42;;;39.30;24.00;;;;;;929707;152;26317;-74
2022/06/13 10:02:49;;;;;;;2.08;1.57;;;39.00;23.70;;;;;;926208;152;26303;-73
2022/06/13 10:05:30;;;;;;;4.30;1.65;;;38.60;23.60;;;;;;925116;152;27343;-73
2022/06/13 10:08:01;;;;;;;2.50;1.32;;;37.90;23.50;;;;;;934764;152;27474;-74
2022/06/13 10:10:29;;;;;;;2.15;1.22;;;37.10;23.60;;;;;;929598;152;27389;-74
2022/06/13 10:13:05;;;;;;;3.20;1.52;;;36.30;24.10;;;;;;930753;152;27337;-73
2022/06/13 10:15:34;;;;;;;1.87;1.40;;;35.40;24.40;;;;;;929403;152;27476;-74
2022/06/13 10:18:01;;;;;;;1.42;1.22;;;34.60;24.80;;;;;;932005;152;27434;-75
2022/06/13 10:20:46;;;;;;;2.52;1.20;;;34.00;25.30;;;;;;932025;151;27462;-75
2022/06/13 10:23:20;;;;;;;3.95;1.30;;;33.40;25.60;;;;;;930363;152;27369;-72
2022/06/13 10:25:53;;;;;;;3.70;1.40;;;32.90;26.20;;;;;;929144;152;27366;-73
2022/06/13 10:28:44;;;;;;;4.05;1.62;;;32.60;26.60;;;;;;920112;152;27431;-74
2022/06/13 10:31:22;;;;;;;2.50;1.30;;;32.50;26.80;;;;;;933565;150;27536;-73
2022/06/13 10:34:07;;;;;;;3.52;1.67;;;32.40;27.00;;;;;;938561;150;27365;-75
2022/06/13 10:36:40;;;;;;;1.98;1.10;;;32.40;27.00;;;;;;936238;150;27400;-74
2022/06/13 10:39:12;;;;;;;2.95;1.60;;;32.30;27.10;;;;;;938049;150;27394;-74
2022/06/13 10:41:38;;;;;;;3.35;1.27;;;32.20;27.20;;;;;;939619;148;27429;-74
2022/06/13 10:44:05;;;;;;;2.92;1.50;;;32.00;27.30;;;;;;944933;150;27455;-74
2022/06/13 10:46:32;;;;;;;2.65;1.65;;;32.00;27.60;;;;;;941734;150;27474;-74
2022/06/13 10:48:58;;;;;;;2.47;1.30;;;31.90;27.50;;;;;;940746;150;27396;-74
2022/06/13 10:51:25;;;;;;;1.47;1.30;;;31.80;27.20;;;;;;940659;150;27747;-74
2022/06/13 10:54:03;;;;;;;3.22;1.67;;;31.70;27.20;;;;;;940775;150;27470;-73
2022/06/13 10:56:42;;;;;;;2.25;1.30;;;31.50;27.30;;;;;;942008;150;27399;-74
2022/06/13 10:59:08;;;;;;;2.40;1.20;;;31.40;27.40;;;;;;941126;150;27316;-74
2022/06/13 11:01:35;;;;;;;2.02;1.30;;;31.20;27.50;;;;;;940190;150;27417;-73
2022/06/13 11:04:07;;;;;;;1.77;1.20;;;31.00;27.50;;;;;;940919;148;27367;-73
2022/06/13 11:06:40;;;;;;;2.72;1.30;;;30.90;27.70;;;;;;932413;150;27354;-74
2022/06/13 11:09:06;;;;;;;2.95;1.30;;;30.80;27.80;;;;;;939187;150;27430;-75
2022/06/13 11:11:36;;;;;;;2.77;1.20;;;30.70;27.90;;;;;;936914;150;27400;-75
2022/06/13 11:14:02;;;;;;;2.27;1.42;;;30.50;27.90;;;;;;938008;150;27427;-73
2022/06/13 11:24:51;;;;;;;1.87;1.50;;;29.80;28.50;;;;;;900245;155;27317;-73
2022/06/13 11:30:30;;;;;;;2.42;1.90;;;29.50;28.90;;;;;;943472;147;27920;-73
2022/06/13 11:33:11;;;;;;;1.82;1.32;;;29.40;29.00;;;;;;927019;150;27355;-73
2022/06/13 11:35:38;;;;;;;3.80;1.55;;;29.40;29.30;;;;;;924576;152;27385;-74
2022/06/13 11:38:26;;;;;;;3.87;1.57;;;29.30;29.60;;;;;;928204;152;27411;-74
2022/06/13 11:41:01;;;;;;;3.60;1.90;;;29.40;29.60;;;;;;923612;152;27816;-73
2022/06/13 11:43:36;;;;;;;3.15;1.65;;;29.30;29.70;;;;;;925003;152;27341;-73
2022/06/13 11:46:03;;;;;;;2.50;1.85;;;29.20;29.60;;;;;;924842;152;27411;-74
2022/06/13 11:48:29;;;;;;;3.55;1.80;;;29.10;29.80;;;;;;927724;152;27437;-72
2022/06/13 11:50:56;;;;;;;2.30;1.65;;;29.00;29.80;;;;;;930853;152;28258;-73
2022/06/13 11:53:37;;;;;;;2.77;1.50;;;28.80;30.00;;;;;;927379;152;27335;-73
2022/06/13 11:56:04;;;;;;;2.98;1.60;;;28.70;30.40;;;;;;928546;152;27279;-74
2022/06/13 11:58:33;;;;;;;3.42;1.70;;;28.50;31.00;;;;;;892430;156;27493;-75
2022/06/13 12:01:09;;;;;;;2.17;1.50;;;28.40;30.80;;;;;;906656;156;27467;-73
2022/06/13 12:03:36;;;;;;;3.05;1.77;;;28.30;31.30;;;;;;923492;153;27276;-73
2022/06/13 12:06:11;;;;;;;4.65;1.90;;;28.20;31.10;;;;;;928655;152;27331;-73
2022/06/13 12:08:38;;;;;;;2.90;1.60;;;28.20;31.20;;;;;;927865;152;27540;-74
2022/06/13 12:11:16;;;;;;;5.78;1.92;;;28.00;31.90;;;;;;932050;151;27306;-74
2022/06/13 12:13:43;;;;;;;2.42;1.62;;;27.90;31.70;;;;;;926590;150;27404;-73
2022/06/13 12:16:24;;;;;;;2.90;1.72;;;27.70;31.60;;;;;;926078;152;28343;-74
2022/06/13 12:18:59;;;;;;;4.62;1.70;;;27.60;31.60;;;;;;894510;156;27409;-73
2022/06/13 12:21:28;;;;;;;3.00;1.80;;;27.40;32.20;;;;;;906115;156;27525;-74
2022/06/13 12:24:18;;;;;;;4.00;1.70;;;27.30;32.80;;;;;;914057;154;27428;-74
2022/06/13 12:26:43;;;;;;;4.10;2.27;;;27.20;33.40;;;;;;911440;154;27389;-73
2022/06/13 12:29:15;;;;;;;2.42;1.87;;;27.00;34.00;;;;;;894355;155;27410;-73
2022/06/13 12:31:53;;;;;;;3.22;1.82;;;26.90;34.10;;;;;;896122;156;27421;-73
2022/06/13 12:34:32;;;;;;;3.15;1.72;;;26.80;34.60;;;;;;898693;155;27406;-75
2022/06/13 12:37:26;;;;;;;2.00;1.80;;;26.70;34.70;;;;;;897740;155;27436;-73
2022/06/13 12:39:59;;;;;;;3.47;1.82;;;26.60;35.20;;;;;;900790;155;27487;-73
2022/06/13 12:42:39;;;;;;;3.00;1.80;;;26.60;35.10;;;;;;897746;155;27476;-72
2022/06/13 12:45:13;;;;;;;3.20;2.00;;;26.50;35.30;;;;;;876928;158;27432;-73
2022/06/13 12:48:01;;;;;;;3.08;1.75;;;26.50;35.70;;;;;;899664;156;27508;-74
2022/06/13 12:50:30;;;;;;;3.22;2.20;;;26.50;35.80;;;;;;902616;155;27421;-73
2022/06/13 12:52:56;;;;;;;2.55;1.82;;;26.40;35.80;;;;;;918532;153;27373;-73
2022/06/13 12:55:31;;;;;;;3.98;2.10;;;26.50;36.30;;;;;;917042;153;27894;-73
2022/06/13 12:58:35;;;;;;;2.72;1.50;;;26.50;36.50;;;;;;920182;153;27243;-74
2022/06/13 13:01:17;;;;;;;1.85;1.65;;;26.60;36.50;;;;;;918123;153;27806;-73
2022/06/13 13:04:08;;;;;;;1.90;1.70;;;26.70;36.70;;;;;;916733;153;27349;-74
2022/06/13 13:06:46;;;;;;;3.65;1.90;;;26.80;36.50;;;;;;916388;153;27273;-74
2022/06/13 13:09:27;;;;;;;3.10;1.55;;;27.00;36.40;;;;;;918681;153;27434;-73
2022/06/13 13:11:52;;;;;;;2.83;1.80;;;27.10;36.40;;;;;;872276;153;27304;-73
2022/06/13 13:14:40;;;;;;;2.05;1.85;;;27.20;36.10;;;;;;915524;153;27251;-73
2022/06/13 13:17:21;;;;;;;2.72;1.75;;;27.20;36.00;;;;;;916296;153;27349;-73
2022/06/13 13:19:59;;;;;;;2.27;1.85;;;27.20;35.80;;;;;;916949;153;27246;-74
2022/06/13 13:22:57;;;;;;;3.17;2.12;;;27.30;35.90;;;;;;885425;153;27323;-72
2022/06/13 13:25:36;;;;;;;2.85;1.80;;;27.40;36.10;;;;;;915959;153;27427;-75
2022/06/13 13:28:20;;;;;;;2.70;1.70;;;27.40;35.70;;;;;;916624;153;27391;-73
2022/06/13 13:31:02;;;;;;;2.60;1.70;;;27.40;35.60;;;;;;920595;153;27376;-73
2022/06/13 13:33:47;;;;;;;3.17;1.72;;;27.40;35.80;;;;;;921140;152;27312;-72
2022/06/13 13:36:13;;;;;;;2.08;1.67;;;27.20;35.30;;;;;;919210;153;27403;-73